ADDS METAR Data

Data at: 0743 UTC 24 Oct 2017

METAR for:KBML (Berlin Muni, NH, US)
Text:KBML 240652Z AUTO 00000KT 10SM SCT055 09/09 A3007 RMK AO2 SLP184 T00890089
Temperature: 8.9°C ( 48°F)
Dewpoint: 8.9°C ( 48°F) [RH = 100%]
Pressure (altimeter):30.07 inches Hg (1018.4 mb) [Sea level pressure: 1018.4 mb]
Winds:calm
Visibility:10 or more sm (16+ km)
Ceiling:at least 12,000 feet AGL
Clouds: scattered clouds at 5500 feet AGL
QC Flag:automated observation with no human augmentation